sensor_id;sensor_type;location;lat;lon;timestamp;P1;durP1;ratioP1;P2;durP2;ratioP2
7831;SDS011;3961;42.058;25.586;2024-03-02T00:00:48;52.37;;;29.07;;
7831;SDS011;3961;42.058;25.586;2024-03-02T00:03:15;53.00;;;27.43;;
7831;SDS011;3961;42.058;25.586;2024-03-02T00:05:40;50.30;;;28.03;;
7831;SDS011;3961;42.058;25.586;2024-03-02T00:08:06;52.63;;;27.70;;
7831;SDS011;3961;42.058;25.586;2024-03-02T00:13:02;56.30;;;30.10;;
7831;SDS011;3961;42.058;25.586;2024-03-02T00:18:34;54.40;;;29.53;;
7831;SDS011;3961;42.058;25.586;2024-03-02T00:21:01;63.80;;;31.30;;
7831;SDS011;3961;42.058;25.586;2024-03-02T00:23:29;61.10;;;30.43;;
7831;SDS011;3961;42.058;25.586;2024-03-02T00:25:56;55.83;;;28.63;;
7831;SDS011;3961;42.058;25.586;2024-03-02T00:33:20;63.13;;;30.03;;
7831;SDS011;3961;42.058;25.586;2024-03-02T00:35:46;55.03;;;28.67;;
7831;SDS011;3961;42.058;25.586;2024-03-02T00:38:12;54.23;;;29.17;;
7831;SDS011;3961;42.058;25.586;2024-03-02T00:40:40;54.90;;;27.73;;
7831;SDS011;3961;42.058;25.586;2024-03-02T00:43:06;53.13;;;27.10;;
7831;SDS011;3961;42.058;25.586;2024-03-02T00:45:49;53.37;;;26.10;;
7831;SDS011;3961;42.058;25.586;2024-03-02T00:48:15;52.80;;;28.50;;
7831;SDS011;3961;42.058;25.586;2024-03-02T00:50:41;52.83;;;27.23;;
7831;SDS011;3961;42.058;25.586;2024-03-02T00:53:09;53.37;;;28.83;;
7831;SDS011;3961;42.058;25.586;2024-03-02T00:55:37;55.67;;;28.60;;
7831;SDS011;3961;42.058;25.586;2024-03-02T00:58:03;57.20;;;29.93;;
7831;SDS011;3961;42.058;25.586;2024-03-02T01:00:28;53.13;;;29.47;;
7831;SDS011;3961;42.058;25.586;2024-03-02T01:02:54;64.10;;;30.20;;
7831;SDS011;3961;42.058;25.586;2024-03-02T01:05:19;50.57;;;29.33;;
7831;SDS011;3961;42.058;25.586;2024-03-02T01:07:45;61.93;;;31.77;;
7831;SDS011;3961;42.058;25.586;2024-03-02T01:10:10;58.60;;;29.97;;
7831;SDS011;3961;42.058;25.586;2024-03-02T01:12:36;58.30;;;30.80;;
7831;SDS011;3961;42.058;25.586;2024-03-02T01:15:02;58.00;;;30.17;;
7831;SDS011;3961;42.058;25.586;2024-03-02T01:17:30;57.50;;;30.43;;
7831;SDS011;3961;42.058;25.586;2024-03-02T01:19:56;65.10;;;31.40;;
7831;SDS011;3961;42.058;25.586;2024-03-02T01:22:22;52.00;;;28.40;;
7831;SDS011;3961;42.058;25.586;2024-03-02T01:24:50;50.10;;;29.03;;
7831;SDS011;3961;42.058;25.586;2024-03-02T01:27:15;56.13;;;27.37;;
7831;SDS011;3961;42.058;25.586;2024-03-02T01:29:41;52.47;;;26.93;;
7831;SDS011;3961;42.058;25.586;2024-03-02T01:32:06;58.07;;;28.60;;
7831;SDS011;3961;42.058;25.586;2024-03-02T01:34:32;51.20;;;27.67;;
7831;SDS011;3961;42.058;25.586;2024-03-02T01:36:57;51.00;;;28.07;;
7831;SDS011;3961;42.058;25.586;2024-03-02T01:39:23;56.30;;;27.10;;
7831;SDS011;3961;42.058;25.586;2024-03-02T01:41:48;54.13;;;30.30;;
7831;SDS011;3961;42.058;25.586;2024-03-02T01:44:13;59.30;;;28.50;;
7831;SDS011;3961;42.058;25.586;2024-03-02T01:46:39;52.57;;;27.87;;
7831;SDS011;3961;42.058;25.586;2024-03-02T01:49:04;54.67;;;28.73;;
7831;SDS011;3961;42.058;25.586;2024-03-02T01:51:31;60.40;;;28.60;;
7831;SDS011;3961;42.058;25.586;2024-03-02T01:53:57;57.10;;;27.93;;
7831;SDS011;3961;42.058;25.586;2024-03-02T01:56:22;63.13;;;29.30;;
7831;SDS011;3961;42.058;25.586;2024-03-02T01:58:48;59.27;;;28.23;;
7831;SDS011;3961;42.058;25.586;2024-03-02T02:01:13;66.13;;;30.33;;
7831;SDS011;3961;42.058;25.586;2024-03-02T02:03:39;60.90;;;29.00;;
7831;SDS011;3961;42.058;25.586;2024-03-02T02:06:05;66.17;;;31.53;;
7831;SDS011;3961;42.058;25.586;2024-03-02T02:08:32;65.77;;;31.67;;
7831;SDS011;3961;42.058;25.586;2024-03-02T02:10:57;62.37;;;28.97;;
7831;SDS011;3961;42.058;25.586;2024-03-02T02:13:23;66.47;;;30.83;;
7831;SDS011;3961;42.058;25.586;2024-03-02T02:15:49;63.47;;;31.03;;
7831;SDS011;3961;42.058;25.586;2024-03-02T02:18:15;60.53;;;30.40;;
7831;SDS011;3961;42.058;25.586;2024-03-02T02:20:40;60.20;;;30.43;;
7831;SDS011;3961;42.058;25.586;2024-03-02T02:23:06;61.00;;;29.90;;
7831;SDS011;3961;42.058;25.586;2024-03-02T02:25:33;56.53;;;29.77;;
7831;SDS011;3961;42.058;25.586;2024-03-02T02:27:59;59.73;;;29.80;;
7831;SDS011;3961;42.058;25.586;2024-03-02T02:30:26;62.57;;;30.10;;
7831;SDS011;3961;42.058;25.586;2024-03-02T02:32:53;58.37;;;27.70;;
7831;SDS011;3961;42.058;25.586;2024-03-02T02:35:18;50.67;;;28.40;;
7831;SDS011;3961;42.058;25.586;2024-03-02T02:37:44;59.83;;;29.37;;
7831;SDS011;3961;42.058;25.586;2024-03-02T02:40:11;58.23;;;27.37;;
7831;SDS011;3961;42.058;25.586;2024-03-02T02:42:37;58.43;;;28.10;;
7831;SDS011;3961;42.058;25.586;2024-03-02T02:45:03;56.13;;;28.20;;
7831;SDS011;3961;42.058;25.586;2024-03-02T02:47:30;53.87;;;26.87;;
7831;SDS011;3961;42.058;25.586;2024-03-02T02:49:55;59.03;;;31.50;;
7831;SDS011;3961;42.058;25.586;2024-03-02T02:52:21;56.07;;;28.00;;
7831;SDS011;3961;42.058;25.586;2024-03-02T02:54:46;59.57;;;29.17;;
7831;SDS011;3961;42.058;25.586;2024-03-02T02:57:11;56.40;;;29.07;;
7831;SDS011;3961;42.058;25.586;2024-03-02T02:59:37;61.97;;;29.63;;
7831;SDS011;3961;42.058;25.586;2024-03-02T03:02:02;60.20;;;30.63;;
7831;SDS011;3961;42.058;25.586;2024-03-02T03:04:28;59.67;;;30.97;;
7831;SDS011;3961;42.058;25.586;2024-03-02T03:06:53;58.07;;;29.87;;
7831;SDS011;3961;42.058;25.586;2024-03-02T03:09:18;52.67;;;30.40;;
7831;SDS011;3961;42.058;25.586;2024-03-02T03:11:44;63.00;;;30.20;;
7831;SDS011;3961;42.058;25.586;2024-03-02T03:14:09;61.53;;;31.73;;
7831;SDS011;3961;42.058;25.586;2024-03-02T03:16:35;66.03;;;29.23;;
7831;SDS011;3961;42.058;25.586;2024-03-02T03:19:00;66.50;;;32.90;;
7831;SDS011;3961;42.058;25.586;2024-03-02T03:21:26;62.47;;;30.43;;
7831;SDS011;3961;42.058;25.586;2024-03-02T03:23:56;63.90;;;29.88;;
7831;SDS011;3961;42.058;25.586;2024-03-02T03:26:21;56.67;;;29.30;;
7831;SDS011;3961;42.058;25.586;2024-03-02T03:28:46;61.03;;;29.60;;
7831;SDS011;3961;42.058;25.586;2024-03-02T03:31:12;54.17;;;28.77;;
7831;SDS011;3961;42.058;25.586;2024-03-02T03:33:37;53.73;;;27.70;;
7831;SDS011;3961;42.058;25.586;2024-03-02T03:36:03;61.27;;;29.53;;
7831;SDS011;3961;42.058;25.586;2024-03-02T03:38:28;64.90;;;30.90;;
7831;SDS011;3961;42.058;25.586;2024-03-02T03:40:54;63.93;;;30.60;;
7831;SDS011;3961;42.058;25.586;2024-03-02T03:43:20;59.37;;;29.13;;
7831;SDS011;3961;42.058;25.586;2024-03-02T03:45:45;58.17;;;29.77;;
7831;SDS011;3961;42.058;25.586;2024-03-02T03:48:11;60.53;;;30.90;;
7831;SDS011;3961;42.058;25.586;2024-03-02T03:50:36;61.27;;;29.80;;
7831;SDS011;3961;42.058;25.586;2024-03-02T03:53:03;54.20;;;28.67;;
7831;SDS011;3961;42.058;25.586;2024-03-02T03:55:28;56.70;;;28.33;;
7831;SDS011;3961;42.058;25.586;2024-03-02T03:57:54;52.20;;;29.13;;
7831;SDS011;3961;42.058;25.586;2024-03-02T04:00:19;54.37;;;29.87;;
7831;SDS011;3961;42.058;25.586;2024-03-02T04:02:44;54.53;;;27.30;;
7831;SDS011;3961;42.058;25.586;2024-03-02T04:05:10;55.07;;;28.30;;
7831;SDS011;3961;42.058;25.586;2024-03-02T04:07:36;54.33;;;26.07;;
7831;SDS011;3961;42.058;25.586;2024-03-02T04:10:06;46.27;;;27.37;;
7831;SDS011;3961;42.058;25.586;2024-03-02T04:12:33;58.30;;;28.50;;
7831;SDS011;3961;42.058;25.586;2024-03-02T04:14:59;59.13;;;30.37;;
7831;SDS011;3961;42.058;25.586;2024-03-02T04:17:24;50.57;;;26.03;;
7831;SDS011;3961;42.058;25.586;2024-03-02T04:19:50;49.13;;;26.37;;
7831;SDS011;3961;42.058;25.586;2024-03-02T04:22:15;47.83;;;25.50;;
7831;SDS011;3961;42.058;25.586;2024-03-02T04:24:40;51.57;;;27.13;;
7831;SDS011;3961;42.058;25.586;2024-03-02T04:27:06;50.50;;;26.07;;
7831;SDS011;3961;42.058;25.586;2024-03-02T04:29:31;49.80;;;26.07;;
7831;SDS011;3961;42.058;25.586;2024-03-02T04:31:57;49.17;;;25.03;;
7831;SDS011;3961;42.058;25.586;2024-03-02T04:34:22;47.53;;;22.93;;
7831;SDS011;3961;42.058;25.586;2024-03-02T04:36:47;42.23;;;24.13;;
7831;SDS011;3961;42.058;25.586;2024-03-02T04:39:13;40.70;;;23.50;;
7831;SDS011;3961;42.058;25.586;2024-03-02T04:41:38;46.93;;;24.17;;
7831;SDS011;3961;42.058;25.586;2024-03-02T04:44:04;42.40;;;22.40;;
7831;SDS011;3961;42.058;25.586;2024-03-02T04:46:29;39.13;;;20.50;;
7831;SDS011;3961;42.058;25.586;2024-03-02T04:48:56;40.80;;;22.40;;
7831;SDS011;3961;42.058;25.586;2024-03-02T04:51:22;40.57;;;21.33;;
7831;SDS011;3961;42.058;25.586;2024-03-02T04:53:48;45.47;;;22.50;;
7831;SDS011;3961;42.058;25.586;2024-03-02T04:56:13;37.90;;;21.80;;
7831;SDS011;3961;42.058;25.586;2024-03-02T04:59:04;39.20;;;21.73;;
7831;SDS011;3961;42.058;25.586;2024-03-02T05:01:29;40.47;;;20.97;;
7831;SDS011;3961;42.058;25.586;2024-03-02T05:03:55;37.17;;;20.83;;
7831;SDS011;3961;42.058;25.586;2024-03-02T05:06:21;39.37;;;20.03;;
7831;SDS011;3961;42.058;25.586;2024-03-02T05:08:47;38.97;;;21.03;;
7831;SDS011;3961;42.058;25.586;2024-03-02T05:11:13;35.03;;;20.87;;
7831;SDS011;3961;42.058;25.586;2024-03-02T05:13:56;37.50;;;20.10;;
7831;SDS011;3961;42.058;25.586;2024-03-02T05:16:22;32.27;;;19.80;;
7831;SDS011;3961;42.058;25.586;2024-03-02T05:18:47;35.63;;;22.03;;
7831;SDS011;3961;42.058;25.586;2024-03-02T05:21:12;36.03;;;20.87;;
7831;SDS011;3961;42.058;25.586;2024-03-02T05:23:38;37.60;;;20.20;;
7831;SDS011;3961;42.058;25.586;2024-03-02T05:26:03;36.60;;;20.70;;
7831;SDS011;3961;42.058;25.586;2024-03-02T05:28:29;35.97;;;19.03;;
7831;SDS011;3961;42.058;25.586;2024-03-02T05:30:54;35.27;;;18.63;;
7831;SDS011;3961;42.058;25.586;2024-03-02T05:33:20;34.83;;;19.40;;
7831;SDS011;3961;42.058;25.586;2024-03-02T05:35:47;36.90;;;19.33;;
7831;SDS011;3961;42.058;25.586;2024-03-02T05:38:15;29.93;;;18.60;;
7831;SDS011;3961;42.058;25.586;2024-03-02T05:40:40;30.63;;;17.53;;
7831;SDS011;3961;42.058;25.586;2024-03-02T05:43:05;37.07;;;18.47;;
7831;SDS011;3961;42.058;25.586;2024-03-02T05:45:31;34.70;;;18.60;;
7831;SDS011;3961;42.058;25.586;2024-03-02T05:47:56;36.00;;;19.50;;
7831;SDS011;3961;42.058;25.586;2024-03-02T05:50:22;36.57;;;18.47;;
7831;SDS011;3961;42.058;25.586;2024-03-02T05:52:47;33.97;;;18.57;;
7831;SDS011;3961;42.058;25.586;2024-03-02T05:55:13;36.67;;;19.50;;
7831;SDS011;3961;42.058;25.586;2024-03-02T05:57:38;40.50;;;20.03;;
7831;SDS011;3961;42.058;25.586;2024-03-02T06:00:09;39.93;;;18.97;;
7831;SDS011;3961;42.058;25.586;2024-03-02T06:02:39;38.93;;;18.87;;
7831;SDS011;3961;42.058;25.586;2024-03-02T06:05:05;39.63;;;19.10;;
7831;SDS011;3961;42.058;25.586;2024-03-02T06:07:32;36.97;;;19.10;;
7831;SDS011;3961;42.058;25.586;2024-03-02T06:09:57;36.93;;;19.30;;
7831;SDS011;3961;42.058;25.586;2024-03-02T06:12:23;42.73;;;19.80;;
7831;SDS011;3961;42.058;25.586;2024-03-02T06:14:49;36.00;;;19.40;;
7831;SDS011;3961;42.058;25.586;2024-03-02T06:17:14;35.10;;;17.33;;
7831;SDS011;3961;42.058;25.586;2024-03-02T06:19:39;43.53;;;20.57;;
7831;SDS011;3961;42.058;25.586;2024-03-02T06:22:05;43.73;;;19.97;;
7831;SDS011;3961;42.058;25.586;2024-03-02T06:24:31;37.87;;;19.23;;
7831;SDS011;3961;42.058;25.586;2024-03-02T06:26:56;41.63;;;19.63;;
7831;SDS011;3961;42.058;25.586;2024-03-02T06:29:22;35.37;;;18.60;;
7831;SDS011;3961;42.058;25.586;2024-03-02T06:31:47;36.63;;;18.93;;
7831;SDS011;3961;42.058;25.586;2024-03-02T06:34:12;40.40;;;19.20;;
7831;SDS011;3961;42.058;25.586;2024-03-02T06:36:38;37.30;;;19.27;;
7831;SDS011;3961;42.058;25.586;2024-03-02T06:39:05;45.43;;;21.73;;
7831;SDS011;3961;42.058;25.586;2024-03-02T06:41:31;38.77;;;21.23;;
7831;SDS011;3961;42.058;25.586;2024-03-02T06:43:56;37.73;;;20.93;;
7831;SDS011;3961;42.058;25.586;2024-03-02T06:46:24;42.37;;;20.90;;
7831;SDS011;3961;42.058;25.586;2024-03-02T06:48:50;41.23;;;21.60;;
7831;SDS011;3961;42.058;25.586;2024-03-02T06:51:15;41.90;;;21.40;;
7831;SDS011;3961;42.058;25.586;2024-03-02T06:53:41;39.03;;;22.03;;
7831;SDS011;3961;42.058;25.586;2024-03-02T06:56:07;40.73;;;20.23;;
7831;SDS011;3961;42.058;25.586;2024-03-02T06:58:33;33.60;;;17.73;;
7831;SDS011;3961;42.058;25.586;2024-03-02T07:00:58;37.23;;;18.47;;
7831;SDS011;3961;42.058;25.586;2024-03-02T07:03:25;40.13;;;18.90;;
7831;SDS011;3961;42.058;25.586;2024-03-02T07:05:51;39.67;;;19.23;;
7831;SDS011;3961;42.058;25.586;2024-03-02T07:08:16;38.60;;;18.73;;
7831;SDS011;3961;42.058;25.586;2024-03-02T07:10:42;42.20;;;21.27;;
7831;SDS011;3961;42.058;25.586;2024-03-02T07:13:07;38.70;;;19.37;;
7831;SDS011;3961;42.058;25.586;2024-03-02T07:15:33;44.17;;;21.37;;
7831;SDS011;3961;42.058;25.586;2024-03-02T07:18:33;43.20;;;22.83;;
7831;SDS011;3961;42.058;25.586;2024-03-02T07:21:00;44.00;;;21.37;;
7831;SDS011;3961;42.058;25.586;2024-03-02T07:23:29;49.40;;;20.93;;
7831;SDS011;3961;42.058;25.586;2024-03-02T07:25:55;42.90;;;23.93;;
7831;SDS011;3961;42.058;25.586;2024-03-02T07:28:24;51.13;;;23.53;;
7831;SDS011;3961;42.058;25.586;2024-03-02T07:33:25;45.20;;;24.33;;
7831;SDS011;3961;42.058;25.586;2024-03-02T07:35:51;37.30;;;20.80;;
7831;SDS011;3961;42.058;25.586;2024-03-02T07:38:17;43.57;;;20.03;;
7831;SDS011;3961;42.058;25.586;2024-03-02T07:40:42;36.83;;;20.13;;
7831;SDS011;3961;42.058;25.586;2024-03-02T07:43:08;40.77;;;21.73;;
7831;SDS011;3961;42.058;25.586;2024-03-02T07:45:33;40.77;;;22.10;;
7831;SDS011;3961;42.058;25.586;2024-03-02T07:48:01;47.87;;;21.43;;
7831;SDS011;3961;42.058;25.586;2024-03-02T07:50:28;40.73;;;20.93;;
7831;SDS011;3961;42.058;25.586;2024-03-02T07:52:53;42.00;;;20.93;;
7831;SDS011;3961;42.058;25.586;2024-03-02T07:55:19;39.97;;;20.90;;
7831;SDS011;3961;42.058;25.586;2024-03-02T07:57:44;41.37;;;22.40;;
7831;SDS011;3961;42.058;25.586;2024-03-02T08:00:10;34.07;;;19.23;;
7831;SDS011;3961;42.058;25.586;2024-03-02T08:02:36;39.23;;;20.57;;
7831;SDS011;3961;42.058;25.586;2024-03-02T08:05:01;39.93;;;20.77;;
7831;SDS011;3961;42.058;25.586;2024-03-02T08:07:26;40.23;;;20.20;;
7831;SDS011;3961;42.058;25.586;2024-03-02T08:09:52;38.17;;;20.47;;
7831;SDS011;3961;42.058;25.586;2024-03-02T08:12:17;35.20;;;20.30;;
7831;SDS011;3961;42.058;25.586;2024-03-02T08:14:44;35.60;;;18.57;;
7831;SDS011;3961;42.058;25.586;2024-03-02T08:17:10;42.90;;;21.70;;
7831;SDS011;3961;42.058;25.586;2024-03-02T08:19:36;37.20;;;20.03;;
7831;SDS011;3961;42.058;25.586;2024-03-02T08:22:02;36.60;;;18.90;;
7831;SDS011;3961;42.058;25.586;2024-03-02T08:24:28;35.97;;;18.73;;
7831;SDS011;3961;42.058;25.586;2024-03-02T08:26:53;36.50;;;18.50;;
7831;SDS011;3961;42.058;25.586;2024-03-02T08:29:19;36.63;;;20.10;;
7831;SDS011;3961;42.058;25.586;2024-03-02T08:31:44;28.40;;;18.67;;
7831;SDS011;3961;42.058;25.586;2024-03-02T08:34:09;35.83;;;20.20;;
7831;SDS011;3961;42.058;25.586;2024-03-02T08:36:35;35.27;;;19.83;;
7831;SDS011;3961;42.058;25.586;2024-03-02T08:39:01;42.00;;;19.70;;
7831;SDS011;3961;42.058;25.586;2024-03-02T08:41:27;45.70;;;23.47;;
7831;SDS011;3961;42.058;25.586;2024-03-02T08:43:52;34.33;;;19.60;;
7831;SDS011;3961;42.058;25.586;2024-03-02T08:46:18;35.37;;;20.93;;
7831;SDS011;3961;42.058;25.586;2024-03-02T08:48:43;43.67;;;21.17;;
7831;SDS011;3961;42.058;25.586;2024-03-02T08:51:09;38.70;;;20.73;;
7831;SDS011;3961;42.058;25.586;2024-03-02T08:53:35;32.90;;;20.93;;
7831;SDS011;3961;42.058;25.586;2024-03-02T08:56:01;35.60;;;21.83;;
7831;SDS011;3961;42.058;25.586;2024-03-02T08:58:27;37.53;;;20.47;;
7831;SDS011;3961;42.058;25.586;2024-03-02T09:00:52;37.73;;;19.33;;
7831;SDS011;3961;42.058;25.586;2024-03-02T09:03:18;28.37;;;19.10;;
7831;SDS011;3961;42.058;25.586;2024-03-02T09:05:43;36.90;;;22.43;;
7831;SDS011;3961;42.058;25.586;2024-03-02T09:08:09;32.33;;;18.60;;
7831;SDS011;3961;42.058;25.586;2024-03-02T09:10:34;34.07;;;18.23;;
7831;SDS011;3961;42.058;25.586;2024-03-02T09:12:59;37.67;;;18.13;;
7831;SDS011;3961;42.058;25.586;2024-03-02T09:15:25;29.90;;;17.90;;
7831;SDS011;3961;42.058;25.586;2024-03-02T09:17:50;34.10;;;18.63;;
7831;SDS011;3961;42.058;25.586;2024-03-02T09:20:16;39.03;;;17.93;;
7831;SDS011;3961;42.058;25.586;2024-03-02T09:22:41;45.97;;;20.07;;
7831;SDS011;3961;42.058;25.586;2024-03-02T09:25:07;34.93;;;19.23;;
7831;SDS011;3961;42.058;25.586;2024-03-02T09:27:36;38.93;;;21.53;;
7831;SDS011;3961;42.058;25.586;2024-03-02T09:30:03;36.43;;;19.33;;
7831;SDS011;3961;42.058;25.586;2024-03-02T09:32:30;51.00;;;21.13;;
7831;SDS011;3961;42.058;25.586;2024-03-02T09:34:56;37.90;;;20.87;;
7831;SDS011;3961;42.058;25.586;2024-03-02T09:37:21;39.60;;;21.07;;
7831;SDS011;3961;42.058;25.586;2024-03-02T09:39:46;36.13;;;21.40;;
7831;SDS011;3961;42.058;25.586;2024-03-02T09:42:12;35.17;;;20.53;;
7831;SDS011;3961;42.058;25.586;2024-03-02T09:44:38;39.53;;;21.30;;
7831;SDS011;3961;42.058;25.586;2024-03-02T09:47:04;33.23;;;19.87;;
7831;SDS011;3961;42.058;25.586;2024-03-02T09:49:30;31.53;;;19.07;;
7831;SDS011;3961;42.058;25.586;2024-03-02T09:51:56;36.40;;;20.17;;
7831;SDS011;3961;42.058;25.586;2024-03-02T09:54:22;30.50;;;18.37;;
7831;SDS011;3961;42.058;25.586;2024-03-02T09:56:47;34.93;;;18.40;;
7831;SDS011;3961;42.058;25.586;2024-03-02T09:59:13;36.57;;;18.77;;
7831;SDS011;3961;42.058;25.586;2024-03-02T10:01:55;33.27;;;19.00;;
7831;SDS011;3961;42.058;25.586;2024-03-02T10:04:28;32.47;;;16.80;;
7831;SDS011;3961;42.058;25.586;2024-03-02T10:09:38;28.20;;;17.70;;
7831;SDS011;3961;42.058;25.586;2024-03-02T10:12:04;28.53;;;18.80;;
7831;SDS011;3961;42.058;25.586;2024-03-02T10:14:31;32.57;;;19.40;;
7831;SDS011;3961;42.058;25.586;2024-03-02T10:17:01;30.20;;;18.37;;
7831;SDS011;3961;42.058;25.586;2024-03-02T10:19:31;32.23;;;19.53;;
7831;SDS011;3961;42.058;25.586;2024-03-02T10:21:58;33.70;;;18.60;;
7831;SDS011;3961;42.058;25.586;2024-03-02T10:24:24;28.37;;;17.67;;
7831;SDS011;3961;42.058;25.586;2024-03-02T10:26:50;30.07;;;16.47;;
7831;SDS011;3961;42.058;25.586;2024-03-02T10:29:17;29.13;;;18.27;;
7831;SDS011;3961;42.058;25.586;2024-03-02T10:31:43;32.93;;;18.63;;
7831;SDS011;3961;42.058;25.586;2024-03-02T10:34:13;26.83;;;16.30;;
7831;SDS011;3961;42.058;25.586;2024-03-02T10:36:42;31.30;;;17.30;;
7831;SDS011;3961;42.058;25.586;2024-03-02T10:39:11;29.70;;;16.90;;
7831;SDS011;3961;42.058;25.586;2024-03-02T10:41:38;28.40;;;18.63;;
7831;SDS011;3961;42.058;25.586;2024-03-02T10:44:08;35.13;;;19.17;;
7831;SDS011;3961;42.058;25.586;2024-03-02T10:46:35;34.43;;;20.27;;
7831;SDS011;3961;42.058;25.586;2024-03-02T10:51:29;36.50;;;19.80;;
7831;SDS011;3961;42.058;25.586;2024-03-02T10:54:01;34.17;;;19.57;;
7831;SDS011;3961;42.058;25.586;2024-03-02T10:56:29;34.67;;;19.87;;
7831;SDS011;3961;42.058;25.586;2024-03-02T10:58:55;35.67;;;20.20;;
7831;SDS011;3961;42.058;25.586;2024-03-02T11:01:28;36.37;;;20.80;;
7831;SDS011;3961;42.058;25.586;2024-03-02T11:03:56;42.67;;;22.90;;
7831;SDS011;3961;42.058;25.586;2024-03-02T11:06:23;35.10;;;20.00;;
7831;SDS011;3961;42.058;25.586;2024-03-02T11:08:51;37.33;;;18.80;;
7831;SDS011;3961;42.058;25.586;2024-03-02T11:11:26;35.37;;;20.20;;
7831;SDS011;3961;42.058;25.586;2024-03-02T11:13:54;40.33;;;19.90;;
7831;SDS011;3961;42.058;25.586;2024-03-02T11:19:02;37.70;;;21.00;;
7831;SDS011;3961;42.058;25.586;2024-03-02T11:21:29;46.53;;;21.83;;
7831;SDS011;3961;42.058;25.586;2024-03-02T11:23:56;42.33;;;20.57;;
7831;SDS011;3961;42.058;25.586;2024-03-02T11:26:22;35.93;;;21.03;;
7831;SDS011;3961;42.058;25.586;2024-03-02T11:28:49;41.00;;;20.73;;
7831;SDS011;3961;42.058;25.586;2024-03-02T11:31:14;41.50;;;21.87;;
7831;SDS011;3961;42.058;25.586;2024-03-02T11:33:40;37.80;;;21.83;;
7831;SDS011;3961;42.058;25.586;2024-03-02T11:36:06;38.57;;;22.00;;
7831;SDS011;3961;42.058;25.586;2024-03-02T11:38:32;38.57;;;22.20;;
7831;SDS011;3961;42.058;25.586;2024-03-02T11:41:02;44.57;;;22.23;;
7831;SDS011;3961;42.058;25.586;2024-03-02T11:43:32;43.57;;;22.80;;
7831;SDS011;3961;42.058;25.586;2024-03-02T11:46:01;38.47;;;21.00;;
7831;SDS011;3961;42.058;25.586;2024-03-02T11:48:32;40.33;;;20.93;;
7831;SDS011;3961;42.058;25.586;2024-03-02T11:51:00;39.20;;;21.70;;
7831;SDS011;3961;42.058;25.586;2024-03-02T11:53:26;36.40;;;21.43;;
7831;SDS011;3961;42.058;25.586;2024-03-02T11:55:55;32.40;;;21.23;;
7831;SDS011;3961;42.058;25.586;2024-03-02T11:58:21;39.50;;;22.00;;
7831;SDS011;3961;42.058;25.586;2024-03-02T12:00:55;45.90;;;21.53;;
7831;SDS011;3961;42.058;25.586;2024-03-02T12:03:22;42.60;;;23.27;;
7831;SDS011;3961;42.058;25.586;2024-03-02T12:05:52;36.87;;;21.93;;
7831;SDS011;3961;42.058;25.586;2024-03-02T12:08:18;36.33;;;22.00;;
7831;SDS011;3961;42.058;25.586;2024-03-02T12:10:55;39.47;;;22.80;;
7831;SDS011;3961;42.058;25.586;2024-03-02T12:13:22;41.03;;;23.13;;
7831;SDS011;3961;42.058;25.586;2024-03-02T12:15:47;42.93;;;25.27;;
7831;SDS011;3961;42.058;25.586;2024-03-02T12:18:17;42.37;;;24.80;;
7831;SDS011;3961;42.058;25.586;2024-03-02T12:20:43;42.97;;;25.37;;
7831;SDS011;3961;42.058;25.586;2024-03-02T12:23:09;40.90;;;26.47;;
7831;SDS011;3961;42.058;25.586;2024-03-02T12:25:35;44.90;;;25.30;;
7831;SDS011;3961;42.058;25.586;2024-03-02T12:28:00;45.33;;;26.53;;
7831;SDS011;3961;42.058;25.586;2024-03-02T12:30:27;40.43;;;25.50;;
7831;SDS011;3961;42.058;25.586;2024-03-02T12:32:55;48.70;;;25.93;;
7831;SDS011;3961;42.058;25.586;2024-03-02T12:35:21;45.83;;;27.47;;
7831;SDS011;3961;42.058;25.586;2024-03-02T12:37:48;46.20;;;27.47;;
7831;SDS011;3961;42.058;25.586;2024-03-02T12:40:15;46.30;;;27.70;;
7831;SDS011;3961;42.058;25.586;2024-03-02T12:42:43;46.87;;;28.73;;
7831;SDS011;3961;42.058;25.586;2024-03-02T12:45:10;44.07;;;27.03;;
7831;SDS011;3961;42.058;25.586;2024-03-02T12:47:36;45.70;;;27.70;;
7831;SDS011;3961;42.058;25.586;2024-03-02T12:50:03;44.10;;;27.07;;
7831;SDS011;3961;42.058;25.586;2024-03-02T12:52:29;45.97;;;28.17;;
7831;SDS011;3961;42.058;25.586;2024-03-02T12:54:55;51.83;;;29.43;;
7831;SDS011;3961;42.058;25.586;2024-03-02T12:57:26;52.77;;;30.37;;
7831;SDS011;3961;42.058;25.586;2024-03-02T12:59:57;45.93;;;29.10;;
7831;SDS011;3961;42.058;25.586;2024-03-02T13:02:30;53.03;;;33.67;;
7831;SDS011;3961;42.058;25.586;2024-03-02T13:04:57;59.77;;;32.47;;
7831;SDS011;3961;42.058;25.586;2024-03-02T13:07:23;52.53;;;30.53;;
7831;SDS011;3961;42.058;25.586;2024-03-02T13:09:50;77.20;;;45.73;;
7831;SDS011;3961;42.058;25.586;2024-03-02T13:12:16;86.60;;;53.70;;
7831;SDS011;3961;42.058;25.586;2024-03-02T13:14:42;76.93;;;46.40;;
7831;SDS011;3961;42.058;25.586;2024-03-02T13:17:08;80.50;;;45.93;;
7831;SDS011;3961;42.058;25.586;2024-03-02T13:19:34;80.03;;;48.40;;
7831;SDS011;3961;42.058;25.586;2024-03-02T13:22:00;88.47;;;51.33;;
7831;SDS011;3961;42.058;25.586;2024-03-02T13:24:28;65.63;;;40.80;;
7831;SDS011;3961;42.058;25.586;2024-03-02T13:26:54;61.63;;;35.53;;
7831;SDS011;3961;42.058;25.586;2024-03-02T13:29:20;45.73;;;28.20;;
7831;SDS011;3961;42.058;25.586;2024-03-02T13:31:47;50.73;;;28.13;;
7831;SDS011;3961;42.058;25.586;2024-03-02T13:34:12;50.77;;;27.63;;
7831;SDS011;3961;42.058;25.586;2024-03-02T13:36:37;47.30;;;27.63;;
7831;SDS011;3961;42.058;25.586;2024-03-02T13:39:03;48.60;;;27.33;;
7831;SDS011;3961;42.058;25.586;2024-03-02T13:41:31;44.17;;;26.70;;
7831;SDS011;3961;42.058;25.586;2024-03-02T13:43:57;47.40;;;28.27;;
7831;SDS011;3961;42.058;25.586;2024-03-02T13:46:22;49.47;;;26.63;;
7831;SDS011;3961;42.058;25.586;2024-03-02T13:48:48;47.23;;;28.70;;
7831;SDS011;3961;42.058;25.586;2024-03-02T13:51:13;46.53;;;27.83;;
7831;SDS011;3961;42.058;25.586;2024-03-02T13:53:38;46.03;;;26.90;;
7831;SDS011;3961;42.058;25.586;2024-03-02T13:56:05;50.00;;;28.10;;
7831;SDS011;3961;42.058;25.586;2024-03-02T13:58:31;48.87;;;28.83;;
7831;SDS011;3961;42.058;25.586;2024-03-02T14:00:56;50.23;;;29.27;;
7831;SDS011;3961;42.058;25.586;2024-03-02T14:03:22;51.63;;;29.03;;
7831;SDS011;3961;42.058;25.586;2024-03-02T14:05:48;58.07;;;30.87;;
7831;SDS011;3961;42.058;25.586;2024-03-02T14:08:15;53.07;;;29.10;;
7831;SDS011;3961;42.058;25.586;2024-03-02T14:10:40;51.13;;;28.73;;
7831;SDS011;3961;42.058;25.586;2024-03-02T14:13:07;48.50;;;29.57;;
7831;SDS011;3961;42.058;25.586;2024-03-02T14:15:33;48.43;;;29.30;;
7831;SDS011;3961;42.058;25.586;2024-03-02T14:17:58;52.83;;;29.47;;
7831;SDS011;3961;42.058;25.586;2024-03-02T14:20:24;53.17;;;30.07;;
7831;SDS011;3961;42.058;25.586;2024-03-02T14:22:49;52.27;;;29.53;;
7831;SDS011;3961;42.058;25.586;2024-03-02T14:25:15;49.97;;;29.60;;
7831;SDS011;3961;42.058;25.586;2024-03-02T14:27:41;47.50;;;28.93;;
7831;SDS011;3961;42.058;25.586;2024-03-02T14:30:07;50.83;;;29.47;;
7831;SDS011;3961;42.058;25.586;2024-03-02T14:32:33;52.67;;;30.07;;
7831;SDS011;3961;42.058;25.586;2024-03-02T14:34:58;52.47;;;30.37;;
7831;SDS011;3961;42.058;25.586;2024-03-02T14:37:23;52.97;;;31.07;;
7831;SDS011;3961;42.058;25.586;2024-03-02T14:39:49;51.63;;;29.10;;
7831;SDS011;3961;42.058;25.586;2024-03-02T14:42:15;48.47;;;29.33;;
7831;SDS011;3961;42.058;25.586;2024-03-02T14:44:40;47.90;;;27.93;;
7831;SDS011;3961;42.058;25.586;2024-03-02T14:47:06;47.27;;;27.20;;
7831;SDS011;3961;42.058;25.586;2024-03-02T14:49:32;45.77;;;27.60;;